sensor_id;sensor_type;location;lat;lon;timestamp;pressure;altitude;pressure_sealevel;temperature;humidity
79331;BME280;68797;49.782;19.054;2023-03-24T00:01:35;96730.13;;;14.22;49.78
79331;BME280;68797;49.782;19.054;2023-03-24T00:04:02;96726.31;;;14.26;50.19
79331;BME280;68797;49.782;19.054;2023-03-24T00:06:30;96727.97;;;14.29;50.18
79331;BME280;68797;49.782;19.054;2023-03-24T00:09:01;96726.41;;;14.40;49.92
79331;BME280;68797;49.782;19.054;2023-03-24T00:11:36;96727.56;;;14.52;50.22
79331;BME280;68797;49.782;19.054;2023-03-24T00:14:04;96724.22;;;14.48;50.80
79331;BME280;68797;49.782;19.054;2023-03-24T00:16:33;96726.56;;;14.55;51.56
79331;BME280;68797;49.782;19.054;2023-03-24T00:19:03;96730.41;;;14.49;50.98
79331;BME280;68797;49.782;19.054;2023-03-24T00:21:32;96722.81;;;14.41;52.49
79331;BME280;68797;49.782;19.054;2023-03-24T00:24:00;96721.06;;;14.40;51.06
79331;BME280;68797;49.782;19.054;2023-03-24T00:26:28;96707.91;;;14.37;50.91
79331;BME280;68797;49.782;19.054;2023-03-24T00:28:56;96713.06;;;14.40;50.98
79331;BME280;68797;49.782;19.054;2023-03-24T00:31:25;96711.09;;;14.44;51.13
79331;BME280;68797;49.782;19.054;2023-03-24T00:33:53;96711.25;;;14.41;50.94
79331;BME280;68797;49.782;19.054;2023-03-24T00:36:23;96708.28;;;14.47;50.31
79331;BME280;68797;49.782;19.054;2023-03-24T00:38:52;96705.53;;;14.48;50.07
79331;BME280;68797;49.782;19.054;2023-03-24T00:41:20;96695.53;;;14.52;50.13
79331;BME280;68797;49.782;19.054;2023-03-24T00:43:48;96695.47;;;14.53;50.53
79331;BME280;68797;49.782;19.054;2023-03-24T00:46:19;96694.34;;;14.58;50.01
79331;BME280;68797;49.782;19.054;2023-03-24T00:49:00;96684.28;;;14.47;50.20
79331;BME280;68797;49.782;19.054;2023-03-24T00:51:53;96679.69;;;14.49;50.43
79331;BME280;68797;49.782;19.054;2023-03-24T00:54:31;96677.56;;;14.56;50.53
79331;BME280;68797;49.782;19.054;2023-03-24T00:57:01;96679.28;;;14.57;50.40
79331;BME280;68797;49.782;19.054;2023-03-24T00:59:30;96676.41;;;14.60;50.24
79331;BME280;68797;49.782;19.054;2023-03-24T01:01:57;96675.47;;;14.61;50.28
79331;BME280;68797;49.782;19.054;2023-03-24T01:04:30;96661.78;;;14.51;49.93
79331;BME280;68797;49.782;19.054;2023-03-24T01:06:57;96668.78;;;14.53;50.32
79331;BME280;68797;49.782;19.054;2023-03-24T01:09:25;96659.81;;;14.55;50.16
79331;BME280;68797;49.782;19.054;2023-03-24T01:11:52;96659.81;;;14.55;50.55
79331;BME280;68797;49.782;19.054;2023-03-24T01:14:19;96664.13;;;14.57;51.39
79331;BME280;68797;49.782;19.054;2023-03-24T01:16:55;96652.56;;;14.57;50.16
79331;BME280;68797;49.782;19.054;2023-03-24T01:19:27;96644.47;;;14.58;50.86
79331;BME280;68797;49.782;19.054;2023-03-24T01:21:56;96649.53;;;14.63;50.60
79331;BME280;68797;49.782;19.054;2023-03-24T01:24:24;96645.75;;;14.67;51.06
79331;BME280;68797;49.782;19.054;2023-03-24T01:26:59;96652.13;;;14.64;51.61
79331;BME280;68797;49.782;19.054;2023-03-24T01:29:26;96644.13;;;14.64;51.25
79331;BME280;68797;49.782;19.054;2023-03-24T01:31:53;96637.94;;;14.64;51.90
79331;BME280;68797;49.782;19.054;2023-03-24T01:34:20;96644.75;;;14.53;52.97
79331;BME280;68797;49.782;19.054;2023-03-24T01:36:50;96639.84;;;14.46;53.69
79331;BME280;68797;49.782;19.054;2023-03-24T01:39:18;96632.22;;;14.38;52.38
79331;BME280;68797;49.782;19.054;2023-03-24T01:41:50;96629.84;;;14.34;53.14
79331;BME280;68797;49.782;19.054;2023-03-24T01:44:35;96620.78;;;14.36;53.67
79331;BME280;68797;49.782;19.054;2023-03-24T01:47:06;96629.22;;;14.29;53.72
79331;BME280;68797;49.782;19.054;2023-03-24T01:49:39;96625.53;;;14.31;52.01
79331;BME280;68797;49.782;19.054;2023-03-24T01:52:29;96624.59;;;14.32;53.55
79331;BME280;68797;49.782;19.054;2023-03-24T01:55:02;96614.06;;;14.29;53.52
79331;BME280;68797;49.782;19.054;2023-03-24T01:57:53;96617.00;;;14.24;54.62
79331;BME280;68797;49.782;19.054;2023-03-24T02:00:26;96608.56;;;14.16;54.78
79331;BME280;68797;49.782;19.054;2023-03-24T02:03:16;96616.75;;;14.13;55.63
79331;BME280;68797;49.782;19.054;2023-03-24T02:05:55;96619.59;;;14.10;56.00
79331;BME280;68797;49.782;19.054;2023-03-24T02:08:49;96607.00;;;13.96;55.96
79331;BME280;68797;49.782;19.054;2023-03-24T02:11:19;96611.06;;;13.88;54.48
79331;BME280;68797;49.782;19.054;2023-03-24T02:13:52;96607.88;;;13.81;55.16
79331;BME280;68797;49.782;19.054;2023-03-24T02:46:35;96578.09;;;13.57;54.35
79331;BME280;68797;49.782;19.054;2023-03-24T02:52:17;96592.53;;;13.53;55.53
79331;BME280;68797;49.782;19.054;2023-03-24T02:55:04;96580.06;;;13.54;54.58
79331;BME280;68797;49.782;19.054;2023-03-24T02:58:00;96571.81;;;13.58;55.15
79331;BME280;68797;49.782;19.054;2023-03-24T03:00:55;96579.50;;;13.64;55.24
79331;BME280;68797;49.782;19.054;2023-03-24T03:04:06;96571.22;;;13.69;55.02
79331;BME280;68797;49.782;19.054;2023-03-24T03:06:38;96552.84;;;13.64;55.77
79331;BME280;68797;49.782;19.054;2023-03-24T03:09:10;96560.28;;;13.58;55.43
79331;BME280;68797;49.782;19.054;2023-03-24T03:11:40;96560.03;;;13.62;55.93
79331;BME280;68797;49.782;19.054;2023-03-24T03:14:12;96561.41;;;13.54;56.17
79331;BME280;68797;49.782;19.054;2023-03-24T03:16:51;96556.41;;;13.48;56.33
79331;BME280;68797;49.782;19.054;2023-03-24T03:19:49;96555.28;;;13.52;55.41
79331;BME280;68797;49.782;19.054;2023-03-24T03:22:42;96558.56;;;13.57;55.34
79331;BME280;68797;49.782;19.054;2023-03-24T03:25:12;96554.69;;;13.62;54.83
79331;BME280;68797;49.782;19.054;2023-03-24T03:27:44;96559.97;;;13.80;54.74
79331;BME280;68797;49.782;19.054;2023-03-24T03:30:22;96564.97;;;13.86;55.08
79331;BME280;68797;49.782;19.054;2023-03-24T03:32:54;96552.50;;;13.86;54.19
79331;BME280;68797;49.782;19.054;2023-03-24T03:35:52;96558.41;;;13.91;54.49
79331;BME280;68797;49.782;19.054;2023-03-24T03:41:39;96554.00;;;14.06;52.77
79331;BME280;68797;49.782;19.054;2023-03-24T03:44:09;96563.91;;;14.04;52.97
79331;BME280;68797;49.782;19.054;2023-03-24T03:46:36;96561.94;;;14.08;53.39
79331;BME280;68797;49.782;19.054;2023-03-24T03:49:07;96559.97;;;14.11;52.89
79331;BME280;68797;49.782;19.054;2023-03-24T03:51:35;96560.63;;;14.15;53.39
79331;BME280;68797;49.782;19.054;2023-03-24T03:54:05;96561.41;;;14.17;53.70
79331;BME280;68797;49.782;19.054;2023-03-24T03:56:35;96564.25;;;14.14;53.21
79331;BME280;68797;49.782;19.054;2023-03-24T03:59:37;96565.88;;;14.16;53.42
79331;BME280;68797;49.782;19.054;2023-03-24T04:05:52;96572.25;;;14.14;53.79
79331;BME280;68797;49.782;19.054;2023-03-24T04:08:51;96568.63;;;14.15;53.96
79331;BME280;68797;49.782;19.054;2023-03-24T04:11:35;96569.41;;;14.17;54.12
79331;BME280;68797;49.782;19.054;2023-03-24T04:14:25;96566.81;;;14.15;54.08
79331;BME280;68797;49.782;19.054;2023-03-24T04:21:46;96560.75;;;13.98;56.47
79331;BME280;68797;49.782;19.054;2023-03-24T04:24:36;96573.38;;;13.94;56.34
79331;BME280;68797;49.782;19.054;2023-03-24T04:33:04;96572.75;;;13.73;59.01
79331;BME280;68797;49.782;19.054;2023-03-24T04:35:37;96576.97;;;13.61;59.33
79331;BME280;68797;49.782;19.054;2023-03-24T04:38:24;96569.47;;;13.52;59.57
79331;BME280;68797;49.782;19.054;2023-03-24T04:41:16;96573.09;;;13.51;59.33
79331;BME280;68797;49.782;19.054;2023-03-24T04:43:56;96573.25;;;13.48;60.74
79331;BME280;68797;49.782;19.054;2023-03-24T04:46:24;96572.50;;;13.46;60.74
79331;BME280;68797;49.782;19.054;2023-03-24T04:48:55;96570.84;;;13.44;60.22
79331;BME280;68797;49.782;19.054;2023-03-24T04:51:44;96564.03;;;13.38;60.80
79331;BME280;68797;49.782;19.054;2023-03-24T04:54:23;96567.75;;;13.35;61.95
79331;BME280;68797;49.782;19.054;2023-03-24T04:57:04;96561.88;;;13.29;62.07
79331;BME280;68797;49.782;19.054;2023-03-24T04:59:49;96560.50;;;13.22;62.18
79331;BME280;68797;49.782;19.054;2023-03-24T05:02:18;96562.91;;;13.26;63.30
79331;BME280;68797;49.782;19.054;2023-03-24T05:04:57;96568.41;;;13.23;62.57
79331;BME280;68797;49.782;19.054;2023-03-24T05:07:35;96566.75;;;13.21;62.12
79331;BME280;68797;49.782;19.054;2023-03-24T05:10:21;96567.72;;;13.20;63.90
79331;BME280;68797;49.782;19.054;2023-03-24T05:13:12;96558.38;;;13.11;64.24
79331;BME280;68797;49.782;19.054;2023-03-24T05:15:59;96560.50;;;13.22;63.37
79331;BME280;68797;49.782;19.054;2023-03-24T05:18:38;96569.00;;;13.28;64.00
79331;BME280;68797;49.782;19.054;2023-03-24T05:21:09;96572.38;;;13.32;63.84
79331;BME280;68797;49.782;19.054;2023-03-24T05:23:49;96564.22;;;13.18;61.87
79331;BME280;68797;49.782;19.054;2023-03-24T05:26:17;96569.25;;;13.24;63.55
79331;BME280;68797;49.782;19.054;2023-03-24T05:29:09;96567.72;;;13.20;64.00
79331;BME280;68797;49.782;19.054;2023-03-24T05:32:09;96565.91;;;13.20;66.01
79331;BME280;68797;49.782;19.054;2023-03-24T05:35:10;96563.16;;;13.22;65.52
79331;BME280;68797;49.782;19.054;2023-03-24T05:37:58;96576.22;;;13.26;65.44
79331;BME280;68797;49.782;19.054;2023-03-24T05:40:29;96570.72;;;13.29;63.96
79331;BME280;68797;49.782;19.054;2023-03-24T05:43:13;96570.28;;;13.21;65.18
79331;BME280;68797;49.782;19.054;2023-03-24T05:45:53;96574.19;;;13.14;65.22
79331;BME280;68797;49.782;19.054;2023-03-24T05:48:30;96564.47;;;13.13;64.86
79331;BME280;68797;49.782;19.054;2023-03-24T05:51:10;96563.44;;;13.16;64.60
79331;BME280;68797;49.782;19.054;2023-03-24T05:53:40;96569.72;;;13.15;64.29
79331;BME280;68797;49.782;19.054;2023-03-24T05:56:27;96556.72;;;13.08;63.75
79331;BME280;68797;49.782;19.054;2023-03-24T05:58:59;96572.88;;;13.23;63.94
79331;BME280;68797;49.782;19.054;2023-03-24T06:01:45;96573.72;;;13.23;62.73
79331;BME280;68797;49.782;19.054;2023-03-24T06:04:22;96573.56;;;13.26;62.78
79331;BME280;68797;49.782;19.054;2023-03-24T06:07:10;96567.19;;;13.29;62.61
79331;BME280;68797;49.782;19.054;2023-03-24T06:09:40;96570.31;;;13.37;62.72
79331;BME280;68797;49.782;19.054;2023-03-24T06:12:40;96570.41;;;13.35;62.54
79331;BME280;68797;49.782;19.054;2023-03-24T06:15:09;96566.19;;;13.31;63.06
79331;BME280;68797;49.782;19.054;2023-03-24T06:17:53;96567.56;;;13.38;63.11
79331;BME280;68797;49.782;19.054;2023-03-24T06:23:44;96567.44;;;13.57;62.18
79331;BME280;68797;49.782;19.054;2023-03-24T06:26:15;96563.50;;;13.64;61.70
79331;BME280;68797;49.782;19.054;2023-03-24T06:28:51;96564.09;;;13.70;61.24
79331;BME280;68797;49.782;19.054;2023-03-24T06:31:25;96555.31;;;13.68;61.04
79331;BME280;68797;49.782;19.054;2023-03-24T06:33:52;96574.34;;;13.77;61.05
79331;BME280;68797;49.782;19.054;2023-03-24T06:36:19;96576.16;;;13.77;61.46
79331;BME280;68797;49.782;19.054;2023-03-24T06:38:46;96584.38;;;13.72;61.37
79331;BME280;68797;49.782;19.054;2023-03-24T06:41:16;96580.50;;;13.62;60.39
79331;BME280;68797;49.782;19.054;2023-03-24T06:43:43;96585.22;;;13.73;61.04
79331;BME280;68797;49.782;19.054;2023-03-24T06:46:09;96582.06;;;13.82;61.92
79331;BME280;68797;49.782;19.054;2023-03-24T06:48:39;96587.44;;;13.98;60.35
79331;BME280;68797;49.782;19.054;2023-03-24T06:51:07;96586.56;;;13.97;60.77
79331;BME280;68797;49.782;19.054;2023-03-24T06:53:34;96577.75;;;13.95;60.23
79331;BME280;68797;49.782;19.054;2023-03-24T06:56:00;96586.09;;;14.05;60.68
79331;BME280;68797;49.782;19.054;2023-03-24T06:58:33;96576.31;;;14.05;59.96
79331;BME280;68797;49.782;19.054;2023-03-24T07:01:07;96570.25;;;14.17;59.54
79331;BME280;68797;49.782;19.054;2023-03-24T07:03:45;96560.09;;;14.24;58.92
79331;BME280;68797;49.782;19.054;2023-03-24T07:06:42;96553.63;;;14.28;58.82
79331;BME280;68797;49.782;19.054;2023-03-24T07:09:13;96532.81;;;14.35;58.25
79331;BME280;68797;49.782;19.054;2023-03-24T07:11:40;96536.69;;;14.45;60.30
79331;BME280;68797;49.782;19.054;2023-03-24T07:14:07;96535.53;;;14.49;58.57
79331;BME280;68797;49.782;19.054;2023-03-24T07:16:35;96532.34;;;14.58;59.29
79331;BME280;68797;49.782;19.054;2023-03-24T07:19:24;96533.22;;;14.73;57.76
79331;BME280;68797;49.782;19.054;2023-03-24T07:22:10;96527.72;;;14.76;57.82
79331;BME280;68797;49.782;19.054;2023-03-24T07:24:57;96518.00;;;14.75;56.71
79331;BME280;68797;49.782;19.054;2023-03-24T07:27:42;96522.28;;;14.77;57.23
79331;BME280;68797;49.782;19.054;2023-03-24T07:30:12;96509.16;;;14.59;58.19
79331;BME280;68797;49.782;19.054;2023-03-24T07:32:46;96505.53;;;14.60;57.97
79331;BME280;68797;49.782;19.054;2023-03-24T07:35:16;96492.28;;;14.58;58.53
79331;BME280;68797;49.782;19.054;2023-03-24T07:37:46;96499.44;;;14.58;59.29
79331;BME280;68797;49.782;19.054;2023-03-24T07:40:26;96499.44;;;14.58;58.79
79331;BME280;68797;49.782;19.054;2023-03-24T07:42:53;96488.97;;;14.55;57.93
79331;BME280;68797;49.782;19.054;2023-03-24T07:45:32;96487.03;;;14.57;57.54
79331;BME280;68797;49.782;19.054;2023-03-24T07:48:00;96480.31;;;14.65;58.06
79331;BME280;68797;49.782;19.054;2023-03-24T07:50:33;96487.81;;;14.73;58.08
79331;BME280;68797;49.782;19.054;2023-03-24T07:53:04;96475.72;;;14.81;58.03
79331;BME280;68797;49.782;19.054;2023-03-24T07:55:37;96479.66;;;14.90;57.10
79331;BME280;68797;49.782;19.054;2023-03-24T07:58:13;96458.09;;;14.93;57.08
79331;BME280;68797;49.782;19.054;2023-03-24T08:00:49;96461.91;;;15.03;56.21
79331;BME280;68797;49.782;19.054;2023-03-24T08:03:25;96464.75;;;15.15;56.58
79331;BME280;68797;49.782;19.054;2023-03-24T08:06:19;96448.16;;;15.24;55.87
79331;BME280;68797;49.782;19.054;2023-03-24T08:08:50;96445.44;;;15.38;55.74
79331;BME280;68797;49.782;19.054;2023-03-24T08:11:16;96441.13;;;15.50;55.59
79331;BME280;68797;49.782;19.054;2023-03-24T08:13:42;96433.47;;;15.58;55.62
79331;BME280;68797;49.782;19.054;2023-03-24T08:16:11;96439.03;;;15.69;53.99
79331;BME280;68797;49.782;19.054;2023-03-24T08:18:37;96428.75;;;15.63;53.78
79331;BME280;68797;49.782;19.054;2023-03-24T08:21:04;96416.91;;;15.80;54.48
79331;BME280;68797;49.782;19.054;2023-03-24T08:23:34;96413.44;;;15.92;53.71
79331;BME280;68797;49.782;19.054;2023-03-24T08:26:02;96406.81;;;15.97;53.40
79331;BME280;68797;49.782;19.054;2023-03-24T08:28:28;96409.72;;;16.07;52.90
79331;BME280;68797;49.782;19.054;2023-03-24T08:30:54;96400.22;;;16.16;52.88
79331;BME280;68797;49.782;19.054;2023-03-24T08:33:20;96400.91;;;16.32;52.76
79331;BME280;68797;49.782;19.054;2023-03-24T08:35:47;96399.69;;;16.23;51.87
79331;BME280;68797;49.782;19.054;2023-03-24T08:38:13;96405.06;;;16.23;51.63
79331;BME280;68797;49.782;19.054;2023-03-24T08:40:41;96396.28;;;16.34;52.09
79331;BME280;68797;49.782;19.054;2023-03-24T08:43:12;96386.66;;;16.44;52.40
79331;BME280;68797;49.782;19.054;2023-03-24T08:45:39;96391.38;;;16.66;51.23
79331;BME280;68797;49.782;19.054;2023-03-24T08:48:07;96382.41;;;16.80;50.08
79331;BME280;68797;49.782;19.054;2023-03-24T08:50:37;96386.25;;;17.01;49.54
79331;BME280;68797;49.782;19.054;2023-03-24T08:53:03;96382.03;;;17.10;49.45
79331;BME280;68797;49.782;19.054;2023-03-24T08:55:30;96384.50;;;17.13;49.78
79331;BME280;68797;49.782;19.054;2023-03-24T08:58:00;96379.56;;;17.20;49.49
79331;BME280;68797;49.782;19.054;2023-03-24T09:00:26;96378.47;;;17.22;49.19
79331;BME280;68797;49.782;19.054;2023-03-24T09:02:54;96368.25;;;17.27;49.43
79331;BME280;68797;49.782;19.054;2023-03-24T09:05:22;96359.22;;;17.41;49.34
79331;BME280;68797;49.782;19.054;2023-03-24T09:07:50;96364.88;;;17.49;48.14
79331;BME280;68797;49.782;19.054;2023-03-24T09:10:17;96359.28;;;17.52;46.55
79331;BME280;68797;49.782;19.054;2023-03-24T09:12:45;96363.88;;;17.63;46.45
79331;BME280;68797;49.782;19.054;2023-03-24T09:15:12;96360.94;;;17.66;48.57
79331;BME280;68797;49.782;19.054;2023-03-24T09:17:39;96361.66;;;17.81;47.54
79331;BME280;68797;49.782;19.054;2023-03-24T09:20:06;96365.06;;;17.83;46.54
79331;BME280;68797;49.782;19.054;2023-03-24T09:22:38;96350.91;;;17.81;45.08
79331;BME280;68797;49.782;19.054;2023-03-24T09:25:05;96351.31;;;17.87;47.38
79331;BME280;68797;49.782;19.054;2023-03-24T09:27:31;96347.59;;;18.01;45.83
79331;BME280;68797;49.782;19.054;2023-03-24T09:29:58;96349.91;;;18.06;45.90
79331;BME280;68797;49.782;19.054;2023-03-24T09:32:24;96351.66;;;18.18;46.47
79331;BME280;68797;49.782;19.054;2023-03-24T09:34:51;96345.69;;;18.25;45.05
79331;BME280;68797;49.782;19.054;2023-03-24T09:37:17;96343.41;;;18.32;43.53
79331;BME280;68797;49.782;19.054;2023-03-24T09:39:43;96338.53;;;18.37;41.98
79331;BME280;68797;49.782;19.054;2023-03-24T09:42:22;96347.22;;;18.52;45.91
79331;BME280;68797;49.782;19.054;2023-03-24T09:45:03;96335.84;;;18.48;40.41
79331;BME280;68797;49.782;19.054;2023-03-24T09:47:37;96335.38;;;18.43;40.96
79331;BME280;68797;49.782;19.054;2023-03-24T09:50:10;96334.88;;;18.61;38.31
79331;BME280;68797;49.782;19.054;2023-03-24T09:52:43;96337.50;;;18.73;40.60
79331;BME280;68797;49.782;19.054;2023-03-24T09:55:18;96336.41;;;18.65;37.89
79331;BME280;68797;49.782;19.054;2023-03-24T09:57:48;96320.38;;;18.63;37.65
79331;BME280;68797;49.782;19.054;2023-03-24T10:00:20;96331.72;;;18.55;36.83
79331;BME280;68797;49.782;19.054;2023-03-24T10:02:48;96321.81;;;18.56;37.33
79331;BME280;68797;49.782;19.054;2023-03-24T10:05:36;96329.06;;;18.67;38.49
79331;BME280;68797;49.782;19.054;2023-03-24T10:22:48;96321.22;;;18.64;36.94
79331;BME280;68797;49.782;19.054;2023-03-24T10:30:40;96327.72;;;19.06;37.29
79331;BME280;68797;49.782;19.054;2023-03-24T10:33:10;96327.22;;;19.12;36.23
79331;BME280;68797;49.782;19.054;2023-03-24T10:35:54;96324.09;;;18.96;35.92
79331;BME280;68797;49.782;19.054;2023-03-24T10:38:25;96327.00;;;18.93;38.38
79331;BME280;68797;49.782;19.054;2023-03-24T10:40:53;96334.72;;;18.86;37.46
79331;BME280;68797;49.782;19.054;2023-03-24T10:43:20;96343.84;;;18.83;38.03
79331;BME280;68797;49.782;19.054;2023-03-24T10:45:51;96323.09;;;18.85;35.63
79331;BME280;68797;49.782;19.054;2023-03-24T10:48:41;96322.59;;;19.03;36.82
79331;BME280;68797;49.782;19.054;2023-03-24T10:51:29;96338.22;;;19.20;36.92
79331;BME280;68797;49.782;19.054;2023-03-24T10:56:44;96318.66;;;19.29;37.97
79331;BME280;68797;49.782;19.054;2023-03-24T10:59:33;96310.75;;;19.49;36.39
79331;BME280;68797;49.782;19.054;2023-03-24T13:10:52;96213.75;;;18.52;36.06
79331;BME280;68797;49.782;19.054;2023-03-24T13:13:38;96219.88;;;18.54;36.49
79331;BME280;68797;49.782;19.054;2023-03-24T13:16:15;96224.97;;;18.57;36.32
79331;BME280;68797;49.782;19.054;2023-03-24T13:18:51;96201.66;;;18.58;35.48
79331;BME280;68797;49.782;19.054;2023-03-24T13:21:19;96216.06;;;18.57;37.25
79331;BME280;68797;49.782;19.054;2023-03-24T13:23:56;96207.63;;;18.62;36.36
79331;BME280;68797;49.782;19.054;2023-03-24T13:30:01;96209.47;;;18.72;36.37
79331;BME280;68797;49.782;19.054;2023-03-24T13:32:34;96202.25;;;18.62;37.64
79331;BME280;68797;49.782;19.054;2023-03-24T13:37:38;96187.63;;;18.66;35.44
79331;BME280;68797;49.782;19.054;2023-03-24T13:40:19;96203.88;;;18.64;36.86
79331;BME280;68797;49.782;19.054;2023-03-24T13:42:51;96201.66;;;18.69;36.54
79331;BME280;68797;49.782;19.054;2023-03-24T13:45:57;96199.25;;;18.66;37.76
79331;BME280;68797;49.782;19.054;2023-03-24T13:48:43;96210.31;;;18.62;37.31
79331;BME280;68797;49.782;19.054;2023-03-24T13:53:44;96212.91;;;18.41;37.68
79331;BME280;68797;49.782;19.054;2023-03-24T13:56:24;96201.53;;;18.48;38.52
79331;BME280;68797;49.782;19.054;2023-03-24T14:01:30;96207.16;;;18.34;37.96
79331;BME280;68797;49.782;19.054;2023-03-24T14:04:25;96211.69;;;18.22;38.32
79331;BME280;68797;49.782;19.054;2023-03-24T14:06:57;96204.22;;;18.15;38.26
79331;BME280;68797;49.782;19.054;2023-03-24T14:09:26;96203.50;;;18.13;38.40
79331;BME280;68797;49.782;19.054;2023-03-24T14:21:56;96185.56;;;18.13;37.95
79331;BME280;68797;49.782;19.054;2023-03-24T14:24:28;96191.78;;;18.14;37.90
79331;BME280;68797;49.782;19.054;2023-03-24T14:26:56;96182.00;;;18.13;39.35
79331;BME280;68797;49.782;19.054;2023-03-24T14:29:38;96184.56;;;18.14;37.60
79331;BME280;68797;49.782;19.054;2023-03-24T14:32:05;96177.50;;;18.13;38.20
79331;BME280;68797;49.782;19.054;2023-03-24T14:34:33;96168.22;;;18.17;38.73
79331;BME280;68797;49.782;19.054;2023-03-24T14:37:03;96174.56;;;18.05;37.87
79331;BME280;68797;49.782;19.054;2023-03-24T14:39:42;96167.25;;;18.07;38.12
79331;BME280;68797;49.782;19.054;2023-03-24T14:45:05;96168.13;;;18.19;38.82
79331;BME280;68797;49.782;19.054;2023-03-24T14:47:38;96151.75;;;18.22;37.76
79331;BME280;68797;49.782;19.054;2023-03-24T14:50:18;96161.25;;;18.26;37.62
79331;BME280;68797;49.782;19.054;2023-03-24T14:52:54;96183.13;;;18.33;37.44
79331;BME280;68797;49.782;19.054;2023-03-24T14:55:24;96159.44;;;18.26;38.01
79331;BME280;68797;49.782;19.054;2023-03-24T14:57:53;96167.38;;;18.17;38.43
79331;BME280;68797;49.782;19.054;2023-03-24T15:00:35;96171.41;;;18.22;37.81
79331;BME280;68797;49.782;19.054;2023-03-24T15:03:10;96172.63;;;18.29;38.99
79331;BME280;68797;49.782;19.054;2023-03-24T15:05:43;96163.34;;;18.22;38.78
79331;BME280;68797;49.782;19.054;2023-03-24T15:13:26;96162.38;;;18.23;39.15
79331;BME280;68797;49.782;19.054;2023-03-24T15:15:55;96162.97;;;18.16;39.52
79331;BME280;68797;49.782;19.054;2023-03-24T15:18:21;96168.00;;;18.20;38.69
79331;BME280;68797;49.782;19.054;2023-03-24T15:20:49;96176.16;;;17.85;39.30
79331;BME280;68797;49.782;19.054;2023-03-24T15:23:24;96177.47;;;17.80;39.84
79331;BME280;68797;49.782;19.054;2023-03-24T15:25:51;96184.91;;;17.76;39.24
79331;BME280;68797;49.782;19.054;2023-03-24T15:28:24;96169.81;;;17.62;39.37
79331;BME280;68797;49.782;19.054;2023-03-24T15:30:52;96178.75;;;17.63;39.85
79331;BME280;68797;49.782;19.054;2023-03-24T15:33:21;96170.44;;;17.55;39.83
79331;BME280;68797;49.782;19.054;2023-03-24T15:35:55;96179.69;;;17.51;40.40
79331;BME280;68797;49.782;19.054;2023-03-24T15:38:31;96181.59;;;17.37;40.60
79331;BME280;68797;49.782;19.054;2023-03-24T15:41:08;96189.03;;;17.34;40.89
79331;BME280;68797;49.782;19.054;2023-03-24T15:43:43;96188.50;;;17.29;41.65
79331;BME280;68797;49.782;19.054;2023-03-24T15:46:27;96190.19;;;17.19;40.57
79331;BME280;68797;49.782;19.054;2023-03-24T15:48:56;96186.59;;;17.07;39.83
79331;BME280;68797;49.782;19.054;2023-03-24T15:51:53;96188.25;;;17.21;43.94
79331;BME280;68797;49.782;19.054;2023-03-24T15:54:29;96196.44;;;17.06;42.52
79331;BME280;68797;49.782;19.054;2023-03-24T15:57:18;96189.13;;;16.97;42.78
79331;BME280;68797;49.782;19.054;2023-03-24T15:59:48;96184.38;;;17.01;42.07
79331;BME280;68797;49.782;19.054;2023-03-24T16:21:39;96183.75;;;16.61;44.04
79331;BME280;68797;49.782;19.054;2023-03-24T16:30:26;96198.56;;;16.53;43.22
79331;BME280;68797;49.782;19.054;2023-03-24T16:44:26;96206.91;;;16.49;43.35
79331;BME280;68797;49.782;19.054;2023-03-24T16:47:15;96209.09;;;16.44;44.22
79331;BME280;68797;49.782;19.054;2023-03-24T16:50:49;96210.28;;;16.27;43.91
79331;BME280;68797;49.782;19.054;2023-03-24T16:53:42;96215.00;;;16.23;44.64
79331;BME280;68797;49.782;19.054;2023-03-24T16:56:25;96204.63;;;16.19;44.52
79331;BME280;68797;49.782;19.054;2023-03-24T16:59:12;96212.00;;;16.15;43.37
79331;BME280;68797;49.782;19.054;2023-03-24T17:02:09;96221.44;;;16.21;44.17
79331;BME280;68797;49.782;19.054;2023-03-24T17:18:13;96211.47;;;15.85;45.91
79331;BME280;68797;49.782;19.054;2023-03-24T17:22:15;96197.03;;;15.62;46.16
79331;BME280;68797;49.782;19.054;2023-03-24T17:26:25;96192.44;;;15.64;47.23
79331;BME280;68797;49.782;19.054;2023-03-24T17:49:12;96165.63;;;15.38;48.81
79331;BME280;68797;49.782;19.054;2023-03-24T17:51:39;96151.97;;;15.43;48.44
79331;BME280;68797;49.782;19.054;2023-03-24T17:54:07;96124.56;;;15.39;48.49
79331;BME280;68797;49.782;19.054;2023-03-24T17:56:35;96160.50;;;15.48;48.76
79331;BME280;68797;49.782;19.054;2023-03-24T17:59:01;96178.72;;;15.43;49.30
79331;BME280;68797;49.782;19.054;2023-03-24T18:01:43;96211.63;;;15.44;50.45
79331;BME280;68797;49.782;19.054;2023-03-24T18:04:24;96220.41;;;15.46;50.26
79331;BME280;68797;49.782;19.054;2023-03-24T18:06:50;96238.25;;;15.45;49.86
79331;BME280;68797;49.782;19.054;2023-03-24T18:09:16;96234.13;;;15.27;50.58
79331;BME280;68797;49.782;19.054;2023-03-24T18:11:43;96245.50;;;15.30;50.26
79331;BME280;68797;49.782;19.054;2023-03-24T18:14:09;96241.09;;;15.29;53.00
79331;BME280;68797;49.782;19.054;2023-03-24T18:16:35;96257.59;;;15.36;55.28
79331;BME280;68797;49.782;19.054;2023-03-24T18:19:04;96258.94;;;15.29;57.47
79331;BME280;68797;49.782;19.054;2023-03-24T18:21:31;96265.88;;;15.19;62.49
79331;BME280;68797;49.782;19.054;2023-03-24T18:24:00;96276.97;;;14.86;61.65
79331;BME280;68797;49.782;19.054;2023-03-24T18:26:26;96293.19;;;14.68;64.65
79331;BME280;68797;49.782;19.054;2023-03-24T18:28:55;96305.78;;;14.52;64.96
79331;BME280;68797;49.782;19.054;2023-03-24T18:31:22;96270.78;;;14.28;65.61
79331;BME280;68797;49.782;19.054;2023-03-24T18:33:52;96295.66;;;14.00;68.92
79331;BME280;68797;49.782;19.054;2023-03-24T18:36:19;96289.50;;;13.84;69.84
79331;BME280;68797;49.782;19.054;2023-03-24T18:38:47;96288.53;;;13.71;69.08